Time;durP1;ratioP1;P1;durP2;ratioP2;P2;SDS_P1;SDS_P2;PMS_P1;PMS_P2;Temp;Humidity;BMP_temperature;BMP_pressure;BME280_temperature;BME280_humidity;BME280_pressure;Samples;Min_cycle;Max_cycle;Signal;HPM_P1;HPM_P2
2023/02/24 00:00:32;;;;;;;29.53;26.00;;;11.50;99.90;;;;;;10452940;28;20198;-84
2023/02/24 00:05:36;;;;;;;30.63;25.43;;;11.50;99.90;;;;;;10496819;28;20213;-83
2023/02/24 00:10:38;;;;;;;30.90;27.60;;;11.50;99.90;;;;;;10481264;28;20232;-84
2023/02/24 00:15:41;;;;;;;30.40;27.20;;;11.50;99.90;;;;;;10495629;28;20247;-84
2023/02/24 00:20:43;;;;;;;30.20;25.37;;;11.50;99.90;;;;;;10479494;28;20263;-83
2023/02/24 00:25:45;;;;;;;29.20;26.10;;;11.60;99.90;;;;;;10493596;28;20225;-84
2023/02/24 00:30:49;;;;;;;28.93;25.00;;;11.50;99.90;;;;;;10492167;28;20575;-84
2023/02/24 00:35:51;;;;;;;28.67;25.73;;;11.50;99.90;;;;;;10479425;28;20217;-84
2023/02/24 00:40:54;;;;;;;30.23;26.97;;;11.60;99.90;;;;;;10496268;28;20212;-83
2023/02/24 00:46:01;;;;;;;33.77;28.50;;;11.60;99.90;;;;;;10465876;28;20213;-84
2023/02/24 00:51:06;;;;;;;38.40;29.97;;;11.60;99.90;;;;;;10479168;28;20201;-84
2023/02/24 00:56:10;;;;;;;35.43;29.00;;;11.60;99.90;;;;;;10480100;28;20228;-84
2023/02/24 01:01:16;;;;;;;32.40;29.10;;;11.70;99.90;;;;;;10479207;28;20267;-84
2023/02/24 01:06:19;;;;;;;31.03;27.83;;;11.80;99.90;;;;;;10478521;28;20224;-84
2023/02/24 01:16:49;;;;;;;32.93;29.37;;;11.80;99.90;;;;;;10512243;28;20239;-84
2023/02/24 01:21:54;;;;;;;31.17;27.77;;;11.80;99.90;;;;;;10457231;28;20197;-84
2023/02/24 01:26:56;;;;;;;30.80;27.70;;;11.90;99.90;;;;;;10515697;28;20336;-83
2023/02/24 01:31:59;;;;;;;30.17;27.13;;;11.90;99.90;;;;;;10497435;28;20232;-84
2023/02/24 01:37:01;;;;;;;32.87;29.53;;;11.90;99.90;;;;;;10500644;28;20212;-84
2023/02/24 01:42:05;;;;;;;29.70;26.53;;;11.90;99.90;;;;;;10515695;28;20203;-85
2023/02/24 01:47:09;;;;;;;32.83;27.70;;;11.90;99.90;;;;;;10498265;28;20225;-84
2023/02/24 01:52:16;;;;;;;28.53;25.60;;;11.90;99.90;;;;;;10479968;28;20216;-84
2023/02/24 01:57:20;;;;;;;29.30;26.50;;;11.90;99.90;;;;;;10462824;28;20243;-84
2023/02/24 02:02:25;;;;;;;27.03;24.50;;;11.90;99.90;;;;;;10493103;28;20189;-84
2023/02/24 02:07:30;;;;;;;28.43;25.43;;;11.90;99.90;;;;;;10497243;28;20308;-84
2023/02/24 02:12:36;;;;;;;27.77;24.97;;;11.90;99.90;;;;;;10478711;28;20571;-83
2023/02/24 02:17:47;;;;;;;29.07;25.77;;;11.90;99.90;;;;;;10481937;28;20220;-84
2023/02/24 02:23:17;;;;;;;29.63;25.53;;;11.90;99.90;;;;;;10483247;28;20524;-84
2023/02/24 02:28:36;;;;;;;30.40;27.13;;;11.90;99.90;;;;;;10469570;28;20242;-82
2023/02/24 02:34:07;;;;;;;30.17;26.27;;;11.90;99.90;;;;;;10484401;28;20303;-84
2023/02/24 02:39:16;;;;;;;28.97;25.97;;;11.80;99.90;;;;;;10485106;28;20237;-84
2023/02/24 02:44:23;;;;;;;28.43;25.47;;;11.80;99.90;;;;;;10484979;28;20186;-83
2023/02/24 02:49:32;;;;;;;28.97;25.77;;;11.80;99.90;;;;;;10483955;28;20213;-83
2023/02/24 02:54:44;;;;;;;28.07;25.03;;;11.80;99.90;;;;;;10483361;28;20607;-82
2023/02/24 02:59:52;;;;;;;31.30;26.20;;;11.80;99.90;;;;;;10499534;28;20208;-84
2023/02/24 03:05:00;;;;;;;29.10;26.10;;;11.80;99.90;;;;;;10467713;28;20213;-83
2023/02/24 03:10:10;;;;;;;28.83;25.90;;;11.80;99.90;;;;;;10513051;28;20209;-83
2023/02/24 03:15:14;;;;;;;31.17;27.93;;;11.80;99.90;;;;;;10501824;28;20228;-83
2023/02/24 03:20:23;;;;;;;33.47;28.67;;;11.80;99.90;;;;;;10482904;28;20210;-83
2023/02/24 03:25:37;;;;;;;31.37;28.17;;;11.80;99.90;;;;;;10466591;28;20280;-82
2023/02/24 03:30:44;;;;;;;33.87;30.37;;;11.80;99.90;;;;;;10484498;28;20195;-82
2023/02/24 03:35:50;;;;;;;33.03;29.67;;;11.80;99.90;;;;;;10483516;28;20221;-82
2023/02/24 03:40:52;;;;;;;34.90;31.23;;;11.80;99.90;;;;;;10488228;28;20202;-83
2023/02/24 03:46:00;;;;;;;32.00;28.53;;;11.80;99.90;;;;;;10489650;28;20212;-83
2023/02/24 03:51:06;;;;;;;34.90;31.27;;;11.80;99.90;;;;;;10490732;28;20266;-83
2023/02/24 03:56:29;;;;;;;33.70;30.20;;;11.80;99.90;;;;;;10475062;28;20294;-83
2023/02/24 04:01:40;;;;;;;33.03;29.67;;;11.80;99.90;;;;;;10491492;28;20197;-84
2023/02/24 04:06:52;;;;;;;34.63;30.90;;;11.80;99.90;;;;;;10464796;28;20276;-84
2023/02/24 04:12:00;;;;;;;32.67;29.37;;;11.80;99.90;;;;;;10525906;28;20649;-84
2023/02/24 04:17:12;;;;;;;38.23;34.20;;;11.80;99.90;;;;;;10500086;28;20225;-84
2023/02/24 04:22:23;;;;;;;34.03;30.40;;;11.80;99.90;;;;;;10514374;28;20192;-84
2023/02/24 04:27:28;;;;;;;35.87;31.50;;;11.80;99.90;;;;;;10512364;28;20286;-84
2023/02/24 04:32:37;;;;;;;38.93;34.30;;;11.70;99.90;;;;;;10498041;28;20212;-84
2023/02/24 04:37:43;;;;;;;42.80;35.67;;;11.70;99.90;;;;;;10516354;28;20209;-84
2023/02/24 04:42:47;;;;;;;38.73;34.23;;;11.70;99.90;;;;;;10499880;28;20190;-84
2023/02/24 04:47:55;;;;;;;45.40;37.30;;;11.70;99.90;;;;;;10503905;28;20340;-83
2023/02/24 04:53:00;;;;;;;46.87;38.23;;;11.70;99.90;;;;;;10483095;28;20209;-83
2023/02/24 04:58:02;;;;;;;46.10;34.70;;;11.70;99.90;;;;;;10500246;28;20552;-83
2023/02/24 05:03:06;;;;;;;43.40;37.00;;;11.70;99.90;;;;;;10500940;28;20649;-83
2023/02/24 05:08:10;;;;;;;48.10;35.47;;;11.70;99.90;;;;;;10501614;28;20214;-83
2023/02/24 05:13:15;;;;;;;45.30;35.30;;;11.60;99.90;;;;;;10484089;28;20645;-83
2023/02/24 05:18:19;;;;;;;43.70;35.87;;;11.60;99.90;;;;;;10511223;28;20259;-83
2023/02/24 05:23:26;;;;;;;42.30;35.60;;;11.60;99.90;;;;;;10486860;28;20335;-83
2023/02/24 05:28:30;;;;;;;47.47;36.07;;;11.60;99.90;;;;;;10491762;28;20221;-83
2023/02/24 05:33:33;;;;;;;43.67;36.27;;;11.60;99.90;;;;;;10489050;28;20583;-84
2023/02/24 05:38:37;;;;;;;46.40;36.30;;;11.60;99.90;;;;;;10483927;28;20221;-83
2023/02/24 05:43:40;;;;;;;47.47;35.37;;;11.60;99.90;;;;;;10486979;28;20679;-83
2023/02/24 05:48:42;;;;;;;44.90;35.63;;;11.50;99.90;;;;;;10485807;28;20584;-84
2023/02/24 05:53:47;;;;;;;47.93;35.43;;;11.50;99.90;;;;;;10503672;28;20292;-83
2023/02/24 05:59:00;;;;;;;45.07;36.97;;;11.50;99.90;;;;;;10486075;28;20205;-84
2023/02/24 06:04:05;;;;;;;45.33;35.53;;;11.50;99.90;;;;;;10505287;28;20190;-82
2023/02/24 06:09:11;;;;;;;44.47;36.40;;;11.50;99.90;;;;;;10507490;28;20229;-83
2023/02/24 06:14:14;;;;;;;48.83;39.30;;;11.50;99.90;;;;;;10489121;28;20292;-83
2023/02/24 06:19:17;;;;;;;53.00;37.20;;;11.60;99.90;;;;;;10490513;28;20616;-84
2023/02/24 06:24:20;;;;;;;54.97;39.13;;;11.50;99.90;;;;;;10515181;28;20178;-83
2023/02/24 06:29:28;;;;;;;55.67;41.17;;;11.60;99.90;;;;;;10489057;28;20217;-83
2023/02/24 06:34:30;;;;;;;61.87;41.50;;;11.50;99.90;;;;;;10486239;28;20197;-83
2023/02/24 06:39:33;;;;;;;52.60;40.10;;;11.50;99.90;;;;;;10484578;28;20193;-83
2023/02/24 06:44:37;;;;;;;53.30;37.90;;;11.60;99.90;;;;;;10502030;28;20208;-83
2023/02/24 06:49:40;;;;;;;52.93;39.10;;;11.60;99.90;;;;;;10485265;28;20194;-83
2023/02/24 06:54:46;;;;;;;56.87;40.60;;;11.60;99.90;;;;;;10486778;28;20219;-84
2023/02/24 06:59:49;;;;;;;55.13;40.53;;;11.60;99.90;;;;;;10486507;28;20575;-82
2023/02/24 07:04:54;;;;;;;52.10;38.70;;;11.60;99.90;;;;;;10506678;28;20210;-83
2023/02/24 07:09:57;;;;;;;59.63;43.27;;;11.60;99.90;;;;;;10489138;28;20201;-83
2023/02/24 07:14:59;;;;;;;61.13;43.53;;;11.60;99.90;;;;;;10496959;28;20731;-84
2023/02/24 07:20:10;;;;;;;55.07;40.60;;;11.60;99.90;;;;;;10497711;28;20220;-83
2023/02/24 07:25:29;;;;;;;54.37;38.80;;;11.60;99.90;;;;;;10519021;28;20285;-83
2023/02/24 07:30:32;;;;;;;57.90;41.03;;;11.60;99.90;;;;;;10494227;28;20248;-83
2023/02/24 07:35:35;;;;;;;51.40;40.23;;;11.60;99.90;;;;;;10499593;28;20254;-84
2023/02/24 07:40:39;;;;;;;55.27;42.40;;;11.60;99.90;;;;;;10525895;28;20201;-83
2023/02/24 07:45:41;;;;;;;56.73;41.00;;;11.60;99.90;;;;;;10485732;28;20320;-84
2023/02/24 07:50:43;;;;;;;57.47;42.50;;;11.60;99.90;;;;;;10518721;28;20292;-84
2023/02/24 07:55:47;;;;;;;56.50;41.60;;;11.60;99.90;;;;;;10477106;28;20336;-83
2023/02/24 08:00:59;;;;;;;64.77;41.07;;;11.60;99.90;;;;;;10481686;28;20202;-84
2023/02/24 08:06:14;;;;;;;59.40;38.87;;;11.60;99.90;;;;;;10478278;28;20262;-83
2023/02/24 08:11:17;;;;;;;55.50;39.27;;;11.60;99.90;;;;;;10485892;28;20205;-83
2023/02/24 08:16:19;;;;;;;53.13;39.27;;;11.70;99.90;;;;;;10501413;28;20225;-84
2023/02/24 08:21:22;;;;;;;48.80;37.67;;;11.60;99.90;;;;;;10480153;28;20201;-82
2023/02/24 08:26:29;;;;;;;56.97;40.50;;;11.70;99.90;;;;;;10490770;28;20762;-84
2023/02/24 08:31:31;;;;;;;47.97;35.87;;;11.70;99.90;;;;;;10505383;28;20221;-83
2023/02/24 08:36:34;;;;;;;45.83;37.10;;;11.70;99.90;;;;;;10471076;28;20312;-83
2023/02/24 08:41:50;;;;;;;47.57;34.87;;;11.80;99.90;;;;;;10478638;28;20228;-84
2023/02/24 08:46:52;;;;;;;41.47;33.60;;;12.00;99.90;;;;;;10495340;28;20257;-83
2023/02/24 08:51:54;;;;;;;39.77;33.37;;;12.20;99.90;;;;;;10493647;28;20205;-83
2023/02/24 08:57:06;;;;;;;36.57;29.00;;;12.50;99.90;;;;;;10489030;28;20213;-83
2023/02/24 09:02:26;;;;;;;31.60;25.23;;;12.70;99.90;;;;;;10485554;28;20259;-82
2023/02/24 09:07:34;;;;;;;31.43;23.47;;;13.00;99.90;;;;;;10490781;28;20213;-84
2023/02/24 09:12:40;;;;;;;27.30;23.83;;;13.00;99.90;;;;;;10472163;28;20193;-85
2023/02/24 09:18:00;;;;;;;29.60;20.33;;;12.90;99.90;;;;;;10490995;28;20717;-82
2023/02/24 09:23:04;;;;;;;29.77;23.33;;;12.80;99.90;;;;;;10490184;28;20200;-84
2023/02/24 09:28:09;;;;;;;27.10;20.87;;;12.80;99.90;;;;;;10496570;28;20290;-84
2023/02/24 09:33:21;;;;;;;26.53;18.00;;;12.80;99.90;;;;;;10482770;28;20608;-84
2023/02/24 09:39:08;;;;;;;30.10;19.20;;;12.90;99.90;;;;;;10500209;28;20210;-83
2023/02/24 09:43:55;;;;;;;27.90;21.60;;;12.90;99.90;;;;;;10508757;28;20193;-84
2023/02/24 09:49:04;;;;;;;39.83;25.90;;;12.90;99.90;;;;;;10493883;28;20212;-84
2023/02/24 09:54:14;;;;;;;34.10;25.60;;;12.90;99.90;;;;;;10494366;28;20676;-84
2023/02/24 09:59:25;;;;;;;36.30;26.57;;;12.90;99.90;;;;;;10515205;28;20527;-83
2023/02/24 10:04:54;;;;;;;31.97;22.37;;;13.00;99.90;;;;;;10482841;28;20189;-84
2023/02/24 10:10:18;;;;;;;23.80;19.53;;;13.10;99.90;;;;;;10491819;28;20191;-84
2023/02/24 10:15:49;;;;;;;28.40;17.13;;;13.30;99.90;;;;;;10493815;28;20247;-84
2023/02/24 10:20:52;;;;;;;22.90;16.27;;;13.40;99.90;;;;;;10456719;28;20194;-84
2023/02/24 10:26:02;;;;;;;33.67;22.80;;;13.50;99.90;;;;;;10520094;28;20240;-84
2023/02/24 10:31:23;;;;;;;35.00;23.50;;;13.50;99.90;;;;;;10479615;28;20205;-84
2023/02/24 10:36:33;;;;;;;29.20;20.20;;;13.50;99.90;;;;;;10481903;28;20220;-84
2023/02/24 10:41:45;;;;;;;24.90;18.60;;;13.50;99.90;;;;;;10505275;28;20198;-83
2023/02/24 10:47:10;;;;;;;25.27;17.60;;;13.40;99.90;;;;;;10489018;28;20266;-84
2023/02/24 10:52:32;;;;;;;27.47;17.37;;;13.40;99.90;;;;;;10479410;28;20272;-83
2023/02/24 10:57:45;;;;;;;21.97;17.23;;;13.30;99.90;;;;;;10512188;28;20239;-83
2023/02/24 11:03:08;;;;;;;20.20;16.67;;;13.20;99.90;;;;;;10513302;28;20169;-84
2023/02/24 11:08:35;;;;;;;33.53;20.67;;;13.20;99.90;;;;;;10496878;28;20220;-83
2023/02/24 11:18:58;;;;;;;41.30;27.63;;;13.30;99.90;;;;;;10509993;28;20210;-84
2023/02/24 11:24:01;;;;;;;47.17;28.87;;;13.20;99.90;;;;;;10489522;28;20199;-83
2023/02/24 11:29:16;;;;;;;43.60;28.53;;;13.20;99.90;;;;;;10484325;28;20221;-83
2023/02/24 11:34:27;;;;;;;42.07;27.53;;;13.20;99.90;;;;;;10489439;28;20259;-84
2023/02/24 11:39:47;;;;;;;39.67;25.60;;;13.10;99.90;;;;;;10492500;28;20220;-83
2023/02/24 11:44:54;;;;;;;43.70;28.50;;;13.00;99.90;;;;;;10493394;28;20185;-84
2023/02/24 11:50:07;;;;;;;45.03;27.90;;;13.00;99.90;;;;;;10508383;28;20198;-84
2023/02/24 11:55:20;;;;;;;39.93;28.60;;;13.00;99.90;;;;;;10490806;28;20224;-82
2023/02/24 12:00:26;;;;;;;41.30;27.20;;;12.90;99.90;;;;;;10475074;28;20221;-82
2023/02/24 12:05:35;;;;;;;41.33;26.70;;;13.00;99.90;;;;;;10478267;28;20304;-83
2023/02/24 12:10:46;;;;;;;35.70;24.03;;;13.00;99.90;;;;;;10494897;28;20224;-83
2023/02/24 12:15:54;;;;;;;25.90;19.73;;;13.00;99.90;;;;;;10494270;28;20225;-82
2023/02/24 12:21:05;;;;;;;28.70;21.47;;;13.10;99.90;;;;;;10495261;28;20220;-84
2023/02/24 12:26:15;;;;;;;27.30;19.27;;;13.30;99.90;;;;;;10504661;28;20285;-82
2023/02/24 12:31:30;;;;;;;28.23;19.57;;;13.50;99.90;;;;;;10478902;28;20202;-83
2023/02/24 12:36:57;;;;;;;25.90;17.60;;;13.60;99.90;;;;;;10505606;28;20212;-84
2023/02/24 12:42:11;;;;;;;24.63;16.27;;;13.70;99.90;;;;;;10508344;28;20302;-84
2023/02/24 12:47:16;;;;;;;26.37;15.00;;;13.90;99.90;;;;;;10531771;28;20593;-84
2023/02/24 12:52:26;;;;;;;21.80;14.37;;;13.90;99.90;;;;;;10486257;28;20226;-84
2023/02/24 12:57:39;;;;;;;20.33;14.10;;;13.90;99.90;;;;;;10485646;28;20285;-84
2023/02/24 13:02:51;;;;;;;18.70;11.80;;;13.90;99.90;;;;;;10524109;28;20216;-84
2023/02/24 13:08:15;;;;;;;16.63;12.70;;;13.70;99.90;;;;;;10520801;28;20235;-84
2023/02/24 13:13:25;;;;;;;17.30;13.80;;;13.60;99.90;;;;;;10500001;28;20612;-84
2023/02/24 13:18:29;;;;;;;20.30;13.10;;;13.60;99.90;;;;;;10496009;28;20221;-84
2023/02/24 13:23:33;;;;;;;22.83;11.77;;;13.50;99.90;;;;;;10494633;28;20208;-84
2023/02/24 13:28:37;;;;;;;15.67;10.40;;;13.50;99.90;;;;;;10494426;28;20245;-84
2023/02/24 13:33:41;;;;;;;19.20;9.97;;;13.50;99.90;;;;;;10503953;28;20208;-84
2023/02/24 13:38:47;;;;;;;21.00;9.70;;;13.60;99.90;;;;;;10492523;28;20225;-84
2023/02/24 13:43:58;;;;;;;18.50;10.57;;;13.60;99.90;;;;;;10471426;28;20232;-84
2023/02/24 13:49:06;;;;;;;14.53;10.53;;;13.50;99.90;;;;;;10489714;28;20221;-84
2023/02/24 13:54:23;;;;;;;18.80;11.70;;;13.40;99.90;;;;;;10474216;28;20239;-84
2023/02/24 13:59:46;;;;;;;24.17;11.60;;;13.40;99.90;;;;;;10491835;28;20209;-85
2023/02/24 14:04:50;;;;;;;16.93;11.57;;;13.40;99.90;;;;;;10494756;28;20637;-84
2023/02/24 14:09:57;;;;;;;28.00;19.00;;;13.40;99.90;;;;;;10487774;28;20196;-84
2023/02/24 14:15:01;;;;;;;25.67;18.23;;;13.40;99.90;;;;;;10487419;28;20221;-85
2023/02/24 14:20:18;;;;;;;33.20;21.80;;;13.40;99.90;;;;;;10484498;28;20193;-84
2023/02/24 14:25:23;;;;;;;33.03;21.20;;;13.30;99.90;;;;;;10501355;28;20251;-84
2023/02/24 14:30:31;;;;;;;29.43;21.20;;;13.30;99.90;;;;;;10497570;28;20215;-83
2023/02/24 14:35:36;;;;;;;28.17;18.00;;;13.20;99.90;;;;;;10468993;28;20561;-85
2023/02/24 14:40:47;;;;;;;32.00;18.50;;;13.20;99.90;;;;;;10486411;28;20190;-82
2023/02/24 14:45:51;;;;;;;30.07;16.23;;;13.10;99.90;;;;;;10502904;28;20573;-82
2023/02/24 14:50:56;;;;;;;21.33;15.13;;;13.00;99.90;;;;;;10502033;28;20204;-83
2023/02/24 14:56:01;;;;;;;25.10;15.00;;;13.00;99.90;;;;;;10501134;28;20227;-82
2023/02/24 15:01:06;;;;;;;19.80;14.37;;;13.00;99.90;;;;;;10499981;28;20200;-83
2023/02/24 15:06:14;;;;;;;24.47;16.20;;;12.90;99.90;;;;;;10466825;28;20670;-83
2023/02/24 15:11:25;;;;;;;22.23;15.60;;;12.90;99.90;;;;;;10477605;28;20273;-83
2023/02/24 15:16:33;;;;;;;23.60;15.20;;;12.90;99.90;;;;;;10449330;28;20217;-83
2023/02/24 15:21:41;;;;;;;20.10;14.57;;;12.90;99.90;;;;;;10484553;28;20273;-83
2023/02/24 15:26:52;;;;;;;28.60;14.77;;;12.80;99.90;;;;;;10485613;28;20228;-84
2023/02/24 15:31:55;;;;;;;24.03;14.93;;;12.80;99.90;;;;;;10490218;28;20197;-84
2023/02/24 15:37:01;;;;;;;18.70;15.17;;;12.80;99.90;;;;;;10500288;28;20221;-84
2023/02/24 15:42:27;;;;;;;42.87;16.20;;;12.80;99.90;;;;;;10486072;28;20198;-84
2023/02/24 15:47:32;;;;;;;23.93;15.00;;;12.70;99.90;;;;;;10519640;28;20209;-84
2023/02/24 15:52:35;;;;;;;21.50;13.83;;;12.70;99.90;;;;;;10499513;28;20232;-82
2023/02/24 15:57:39;;;;;;;21.23;12.50;;;12.70;99.90;;;;;;10505407;28;20292;-81
2023/02/24 16:02:41;;;;;;;19.27;13.30;;;12.70;99.90;;;;;;10514827;28;20251;-83
2023/02/24 16:07:45;;;;;;;20.03;12.70;;;12.60;99.90;;;;;;10468989;28;20217;-83
2023/02/24 16:12:52;;;;;;;17.70;11.80;;;12.60;99.90;;;;;;10506720;28;20221;-81
2023/02/24 16:17:55;;;;;;;18.90;12.90;;;12.50;99.90;;;;;;10485460;28;20213;-81
2023/02/24 16:22:59;;;;;;;20.83;13.10;;;12.40;99.90;;;;;;10508350;28;20284;-83
2023/02/24 16:28:02;;;;;;;17.80;12.80;;;12.20;99.90;;;;;;10489676;28;20221;-83
2023/02/24 16:33:04;;;;;;;18.77;13.13;;;12.00;99.90;;;;;;10494523;28;20285;-80
2023/02/24 16:38:07;;;;;;;21.63;14.03;;;11.90;99.90;;;;;;10516147;28;20533;-81
2023/02/24 16:43:12;;;;;;;23.10;16.73;;;11.80;99.90;;;;;;10487022;28;20436;-82
2023/02/24 16:48:21;;;;;;;22.10;16.17;;;11.70;99.90;;;;;;10454282;28;20210;-82
2023/02/24 16:53:24;;;;;;;26.43;15.90;;;11.60;99.90;;;;;;10470725;28;20348;-83
2023/02/24 16:58:27;;;;;;;25.57;17.60;;;11.50;99.90;;;;;;10485403;28;20215;-85
2023/02/24 17:03:42;;;;;;;25.03;17.43;;;11.50;99.90;;;;;;10486209;28;20219;-81
2023/02/24 17:08:45;;;;;;;23.83;17.20;;;11.40;99.90;;;;;;10470234;28;20209;-82
2023/02/24 17:13:48;;;;;;;21.10;16.73;;;11.40;99.90;;;;;;10487681;28;20208;-82
2023/02/24 17:18:50;;;;;;;24.77;18.70;;;11.40;99.90;;;;;;10477002;28;20217;-85
2023/02/24 17:23:52;;;;;;;27.33;17.83;;;11.40;99.90;;;;;;10487205;28;20225;-83
2023/02/24 17:28:56;;;;;;;19.33;17.07;;;11.40;99.90;;;;;;10487131;28;20217;-84
2023/02/24 17:33:58;;;;;;;21.33;15.70;;;11.30;99.90;;;;;;10494410;28;20212;-82
2023/02/24 17:39:00;;;;;;;21.30;17.10;;;11.30;99.90;;;;;;10465055;28;20217;-82
2023/02/24 17:44:03;;;;;;;17.87;15.73;;;11.40;99.90;;;;;;10477251;28;20284;-84
2023/02/24 17:49:05;;;;;;;25.90;15.17;;;11.40;99.90;;;;;;10495661;28;20221;-83
2023/02/24 17:54:08;;;;;;;20.20;15.33;;;11.30;99.90;;;;;;10460865;28;20204;-84
2023/02/24 17:59:11;;;;;;;17.60;14.87;;;11.40;99.90;;;;;;10475147;28;20216;-84
2023/02/24 18:04:14;;;;;;;17.30;13.50;;;11.40;99.90;;;;;;10476487;28;20284;-84
2023/02/24 18:09:16;;;;;;;16.97;14.23;;;11.40;99.90;;;;;;10497435;28;20215;-84
2023/02/24 18:14:19;;;;;;;14.17;10.60;;;11.50;99.90;;;;;;10499427;28;20637;-84
2023/02/24 18:19:22;;;;;;;12.33;8.53;;;11.40;99.90;;;;;;10481615;28;20331;-84
2023/02/24 18:24:24;;;;;;;9.10;8.20;;;11.40;99.90;;;;;;10495234;28;20186;-84
2023/02/24 18:29:27;;;;;;;7.67;7.03;;;11.40;99.90;;;;;;10478833;28;20327;-84
2023/02/24 18:34:29;;;;;;;6.97;6.37;;;11.40;99.90;;;;;;10498401;28;20559;-84
2023/02/24 18:39:31;;;;;;;7.77;6.53;;;11.40;99.90;;;;;;10530308;28;20240;-83
2023/02/24 18:44:35;;;;;;;7.20;6.50;;;11.40;99.90;;;;;;10479625;28;20192;-84
2023/02/24 18:49:37;;;;;;;6.47;5.67;;;11.40;99.90;;;;;;10496216;28;20193;-83
2023/02/24 18:54:39;;;;;;;5.70;5.20;;;11.40;99.90;;;;;;10497279;28;20189;-84
2023/02/24 18:59:43;;;;;;;5.53;5.10;;;11.40;99.90;;;;;;10482867;28;20209;-84
2023/02/24 19:04:45;;;;;;;7.47;6.77;;;11.40;99.90;;;;;;10496690;28;20211;-84
2023/02/24 19:09:48;;;;;;;7.77;6.90;;;11.40;99.90;;;;;;10494913;28;20189;-84
2023/02/24 19:14:52;;;;;;;11.57;10.00;;;11.40;99.90;;;;;;10504581;28;20197;-84
2023/02/24 19:19:54;;;;;;;16.43;12.20;;;11.40;99.90;;;;;;10505202;28;20220;-84
2023/02/24 19:24:57;;;;;;;16.10;13.30;;;11.30;99.90;;;;;;10505282;28;20235;-83
2023/02/24 19:30:01;;;;;;;22.20;15.30;;;11.30;99.90;;;;;;10515285;28;20192;-84
2023/02/24 19:35:03;;;;;;;20.47;16.43;;;11.30;99.90;;;;;;10510594;28;20205;-84
2023/02/24 19:40:07;;;;;;;20.70;16.60;;;11.30;99.90;;;;;;10511249;28;20666;-84
2023/02/24 19:45:10;;;;;;;24.17;17.33;;;11.30;99.90;;;;;;10480030;28;20213;-83
2023/02/24 19:50:13;;;;;;;24.93;16.43;;;11.20;99.90;;;;;;10509776;28;20542;-84
2023/02/24 19:55:15;;;;;;;24.87;17.87;;;11.20;99.90;;;;;;10492583;28;20236;-83
2023/02/24 20:00:20;;;;;;;22.60;17.53;;;11.20;99.90;;;;;;10492490;28;20688;-83
2023/02/24 20:05:23;;;;;;;23.70;18.67;;;11.20;99.90;;;;;;10477485;28;20589;-84
2023/02/24 20:10:25;;;;;;;18.73;16.70;;;11.20;99.90;;;;;;10476991;28;20194;-83
2023/02/24 20:15:30;;;;;;;20.93;18.63;;;11.20;99.90;;;;;;10506504;28;20221;-83
2023/02/24 20:20:34;;;;;;;23.40;18.40;;;11.20;99.90;;;;;;10487335;28;20213;-81
2023/02/24 20:25:37;;;;;;;21.87;18.33;;;11.20;99.90;;;;;;10521254;22;20311;-79
2023/02/24 20:30:42;;;;;;;27.80;19.30;;;11.10;99.90;;;;;;10543394;28;20199;-81
2023/02/24 20:35:48;;;;;;;24.90;18.43;;;11.10;99.90;;;;;;10514015;28;20243;-82
2023/02/24 20:40:57;;;;;;;21.57;17.60;;;11.10;99.90;;;;;;10460569;28;20198;-81
2023/02/24 20:46:13;;;;;;;23.77;18.47;;;11.10;99.90;;;;;;10474521;28;20229;-82
2023/02/24 20:51:21;;;;;;;20.93;17.93;;;11.10;99.90;;;;;;10456376;28;20201;-79
2023/02/24 20:56:26;;;;;;;22.07;19.60;;;11.10;99.90;;;;;;10499936;28;20227;-80
2023/02/24 21:01:31;;;;;;;29.00;19.20;;;11.10;99.90;;;;;;10501943;28;20208;-80
2023/02/24 21:06:34;;;;;;;22.40;18.87;;;11.10;99.90;;;;;;10512849;28;20219;-82
2023/02/24 21:11:36;;;;;;;25.00;18.30;;;11.10;99.90;;;;;;10476756;28;20190;-79
2023/02/24 21:16:39;;;;;;;20.33;16.07;;;11.00;99.90;;;;;;10534567;28;20221;-79
2023/02/24 21:21:41;;;;;;;17.23;15.37;;;11.00;99.90;;;;;;10511285;28;20667;-80
2023/02/24 21:26:44;;;;;;;11.37;9.13;;;10.90;99.90;;;;;;10490879;28;20239;-82
2023/02/24 21:31:48;;;;;;;6.00;5.50;;;10.80;99.90;;;;;;10477217;28;20193;-82
2023/02/24 21:36:50;;;;;;;6.13;5.53;;;10.60;99.90;;;;;;10531151;28;20232;-82
2023/02/24 21:41:52;;;;;;;5.30;4.87;;;10.30;99.90;;;;;;10524066;28;20511;-80
2023/02/24 21:46:56;;;;;;;5.90;5.50;;;9.90;99.90;;;;;;10473887;28;20277;-80
2023/02/24 21:51:58;;;;;;;5.43;5.03;;;9.60;99.90;;;;;;10529439;28;20554;-81
2023/02/24 21:57:00;;;;;;;5.33;4.93;;;9.40;99.90;;;;;;10492602;28;20213;-81
2023/02/24 22:02:03;;;;;;;7.13;6.63;;;9.20;99.90;;;;;;10501610;28;20199;-80
2023/02/24 22:07:06;;;;;;;6.47;6.17;;;9.10;99.90;;;;;;10457643;28;20216;-79
2023/02/24 22:12:08;;;;;;;8.13;7.63;;;8.90;99.90;;;;;;10496990;28;20615;-79
2023/02/24 22:17:11;;;;;;;8.50;8.00;;;8.90;99.90;;;;;;10499420;28;20232;-79
2023/02/24 22:22:13;;;;;;;9.67;8.87;;;8.70;99.90;;;;;;10430263;28;20670;-79
2023/02/24 22:27:16;;;;;;;11.87;10.90;;;8.60;99.90;;;;;;10498165;28;20240;-79
2023/02/24 22:32:19;;;;;;;13.40;12.40;;;8.50;99.90;;;;;;10447598;28;20220;-79
2023/02/24 22:37:22;;;;;;;13.67;12.67;;;8.40;99.90;;;;;;10441695;28;20225;-79
2023/02/24 22:42:24;;;;;;;14.97;13.77;;;8.30;99.90;;;;;;10498674;28;20320;-79
2023/02/24 22:47:28;;;;;;;14.40;13.40;;;8.20;99.90;;;;;;10456779;28;20216;-78
2023/02/24 22:52:31;;;;;;;15.07;14.00;;;8.20;99.90;;;;;;10505652;28;20206;-78
2023/02/24 22:57:33;;;;;;;14.30;13.10;;;8.10;99.90;;;;;;10490399;28;20209;-79
2023/02/24 23:02:37;;;;;;;15.33;14.33;;;8.10;99.90;;;;;;10477423;28;20224;-78
2023/02/24 23:07:39;;;;;;;15.27;14.30;;;8.10;99.90;;;;;;10466979;28;20209;-79
2023/02/24 23:12:42;;;;;;;17.30;16.03;;;8.10;99.90;;;;;;10502320;28;20274;-79
2023/02/24 23:17:47;;;;;;;14.70;13.70;;;8.10;99.90;;;;;;10456204;28;20314;-78
2023/02/24 23:22:49;;;;;;;14.77;13.80;;;8.10;99.90;;;;;;10455604;28;20235;-79
2023/02/24 23:27:53;;;;;;;15.50;14.20;;;8.10;99.90;;;;;;10483758;28;20748;-78
2023/02/24 23:32:56;;;;;;;14.97;13.90;;;8.10;99.90;;;;;;10484543;28;20223;-81
2023/02/24 23:37:59;;;;;;;14.87;13.87;;;8.20;99.90;;;;;;10494377;28;20225;-81
2023/02/24 23:43:01;;;;;;;14.77;13.50;;;8.20;99.90;;;;;;10504332;28;20201;-79
2023/02/24 23:48:05;;;;;;;15.50;14.40;;;8.20;99.90;;;;;;10479154;28;20213;-80
2023/02/24 23:53:07;;;;;;;16.23;14.90;;;8.20;99.90;;;;;;10518367;28;20215;-81
2023/02/24 23:58:09;;;;;;;15.90;14.60;;;8.20;99.90;;;;;;10492116;28;20212;-80
